KCCR/CCR METAR and TAF weather

Enter ICAO airport designator
Station Type Date Time Source
KCCR METAR 2021/03/07 07:53 UTC NOAA

KCCR 070753Z AUTO 18004KT 10SM CLR 09/03 A3015 RMK AO2 SLP197 T00890028 401670067


Station Type Date Time Source
KCCR Decoded METAR 2021/03/07 07:53 UTC NOAA

CONCORD BUCHANAN FIELD, CA, United States (KCCR) 38-00N 122-03W 11M
Mar 07, 2021 - 02:53 AM EST / 2021.03.07 0753 UTC
Wind: from the S (180 degrees) at 5 MPH (4 KT):0
Visibility: 10 mile(s):0
Sky conditions: clear
Temperature: 48.0 F (8.9 C)
Dew Point: 37.0 F (2.8 C)
Relative Humidity: 65%
Pressure (altimeter): 30.15 in. Hg (1020 hPa)
ob: KCCR 070753Z AUTO 18004KT 10SM CLR 09/03 A3015 RMK AO2 SLP197 T00890028 401670067
cycle: 8

Station Type Date Time Source
KCCR TAF 2016/02/08 18:39 UTC NOAA

TAF KCCR 081738Z 0818/0918 07006KT P6SM SKC
FM082000 06010KT P6SM SKC
FM090000 06005KT P6SM SKC
FM090600 VRB03KT P6SM SKC

Example: see airport list